createdAt,value
2016-08-25T00:02:47.598Z,17.74
2016-08-25T00:03:32.705Z,17.7
2016-08-25T00:04:32.724Z,17.68
2016-08-25T00:05:32.756Z,17.68
2016-08-25T00:06:32.781Z,17.68
2016-08-25T00:07:32.800Z,17.55
2016-08-25T00:08:32.831Z,17.62
2016-08-25T00:09:32.857Z,17.55
2016-08-25T00:10:32.887Z,17.59
2016-08-25T00:11:32.904Z,17.48
2016-08-25T00:12:32.938Z,17.54
2016-08-25T00:13:32.962Z,17.52
2016-08-25T00:17:33.067Z,17.4
2016-08-25T00:18:33.095Z,17.49
2016-08-25T00:19:33.112Z,17.41
2016-08-25T00:20:33.147Z,17.43
2016-08-25T00:21:33.169Z,17.41
2016-08-25T00:22:33.199Z,17.33
2016-08-25T00:23:33.225Z,17.36
2016-08-25T00:24:33.250Z,17.28
2016-08-25T00:25:33.274Z,17.23
2016-08-25T00:26:33.325Z,17.19
2016-08-25T00:27:33.380Z,17.22
2016-08-25T00:28:33.349Z,17.28
2016-08-25T00:29:48.309Z,17.28
2016-08-25T00:30:33.401Z,17.18
2016-08-25T00:31:48.358Z,17.19
2016-08-25T00:33:48.409Z,17.18
2016-08-25T00:34:48.441Z,17.16
2016-08-25T00:35:33.541Z,17.18
2016-08-25T00:36:33.559Z,17.23
2016-08-25T00:37:33.589Z,17.16
2016-08-25T00:38:33.613Z,17.19
2016-08-25T00:39:33.636Z,17.19
2016-08-25T00:40:33.669Z,17.22
2016-08-25T00:41:33.690Z,17.18
2016-08-25T00:42:33.720Z,17.25
2016-08-25T00:43:33.744Z,17.19
2016-08-25T00:44:33.767Z,17.22
2016-08-25T00:45:33.806Z,17.23
2016-08-25T00:46:33.819Z,17.16
2016-08-25T00:47:33.847Z,17.19
2016-08-25T00:48:33.875Z,17.14
2016-08-25T00:49:33.904Z,17.08
2016-08-25T00:50:48.849Z,17.14
2016-08-25T00:51:33.950Z,17.08
2016-08-25T00:52:33.977Z,17.08
2016-08-25T00:53:34.000Z,17.11
2016-08-25T00:54:34.037Z,17.14
2016-08-25T00:55:34.056Z,17.11
2016-08-25T00:56:34.088Z,17.11
2016-08-25T00:57:34.111Z,17.06
2016-08-25T00:58:34.148Z,17.07
2016-08-25T00:59:34.165Z,17.01
2016-08-25T01:00:34.180Z,16.94
2016-08-25T01:01:34.219Z,16.93
2016-08-25T01:02:34.951Z,16.94
2016-08-25T01:03:34.962Z,16.94
2016-08-25T01:04:34.287Z,16.91
2016-08-25T01:05:34.319Z,16.97
2016-08-25T01:06:49.269Z,16.86
2016-08-25T01:07:34.425Z,16.91
2016-08-25T01:08:34.391Z,16.88
2016-08-25T01:09:34.424Z,16.88
2016-08-25T01:10:34.446Z,16.81
2016-08-25T01:11:34.569Z,16.88
2016-08-25T01:12:34.495Z,16.89
2016-08-25T01:13:34.518Z,16.82
2016-08-25T01:14:34.543Z,16.81
2016-08-25T01:15:34.581Z,16.82
2016-08-25T01:16:34.613Z,16.82
2016-08-25T01:19:34.686Z,16.68
2016-08-25T01:20:34.705Z,16.68
2016-08-25T01:21:34.736Z,16.7
2016-08-25T01:22:49.690Z,16.68
2016-08-25T01:23:34.784Z,16.71
2016-08-25T01:24:34.808Z,16.67
2016-08-25T01:25:34.830Z,16.67
2016-08-25T01:26:34.860Z,16.68
2016-08-25T01:27:34.883Z,16.6
2016-08-25T01:28:34.910Z,16.67
2016-08-25T01:29:34.941Z,16.64
2016-08-25T01:30:35.011Z,16.56
2016-08-25T01:31:34.986Z,16.66
2016-08-25T01:32:35.014Z,16.63
2016-08-25T01:33:35.034Z,16.66
2016-08-25T01:34:35.068Z,16.6
2016-08-25T01:35:35.090Z,16.66
2016-08-25T01:36:35.124Z,16.64
2016-08-25T01:37:50.067Z,16.63
2016-08-25T01:38:35.166Z,16.56
2016-08-25T01:39:50.116Z,16.63
2016-08-25T01:40:35.219Z,16.64
2016-08-25T01:41:35.251Z,16.58
2016-08-25T01:42:35.276Z,16.57
2016-08-25T01:43:35.307Z,16.56
2016-08-25T01:44:35.325Z,16.52
2016-08-25T01:45:35.350Z,16.46
2016-08-25T01:46:35.379Z,16.46
2016-08-25T01:47:35.403Z,16.53
2016-08-25T01:48:35.434Z,16.49
2016-08-25T01:49:35.450Z,16.5
2016-08-25T01:50:50.408Z,16.41
2016-08-25T01:51:50.429Z,16.49
2016-08-25T01:52:35.525Z,16.5
2016-08-25T01:54:35.585Z,16.45
2016-08-25T01:55:35.611Z,16.42
2016-08-25T01:56:35.632Z,16.45
2016-08-25T01:58:35.690Z,16.35
2016-08-25T01:59:35.706Z,16.39
2016-08-25T02:00:35.736Z,16.31
2016-08-25T02:01:35.759Z,16.33
2016-08-25T02:02:35.803Z,16.34
2016-08-25T02:03:35.810Z,16.41
2016-08-25T02:04:35.839Z,16.33
2016-08-25T02:05:35.870Z,16.31
2016-08-25T02:06:35.889Z,16.35
2016-08-25T02:07:35.921Z,16.38
2016-08-25T02:08:35.944Z,16.31
2016-08-25T02:09:50.944Z,16.43
2016-08-25T02:10:35.996Z,16.25
2016-08-25T02:11:36.022Z,16.3
2016-08-25T02:12:36.048Z,16.28
2016-08-25T02:13:36.074Z,16.39
2016-08-25T02:14:36.098Z,16.39
2016-08-25T02:15:36.128Z,16.34
2016-08-25T02:16:36.145Z,16.34
2016-08-25T02:17:36.172Z,16.33
2016-08-25T02:18:36.204Z,16.28
2016-08-25T02:19:36.221Z,16.39
2016-08-25T02:20:36.951Z,16.34
2016-08-25T02:21:51.204Z,16.25
2016-08-25T02:22:36.300Z,16.24
2016-08-25T02:23:36.329Z,16.2
2016-08-25T02:24:36.346Z,16.21
2016-08-25T02:25:51.301Z,16.12
2016-08-25T02:26:36.401Z,16.12
2016-08-25T02:27:51.352Z,16.09
2016-08-25T02:28:36.456Z,16.05
2016-08-25T02:29:36.478Z,16.07
2016-08-25T02:30:36.506Z,16.05
2016-08-25T02:31:36.531Z,16.11
2016-08-25T02:32:36.563Z,16.07
2016-08-25T02:33:36.592Z,16.09
2016-08-25T02:35:36.632Z,16.07
2016-08-25T02:36:36.671Z,16.11
2016-08-25T02:37:36.691Z,16.11
2016-08-25T02:38:36.712Z,16.01
2016-08-25T02:39:36.743Z,15.94
2016-08-25T02:40:36.773Z,15.97
2016-08-25T02:41:51.709Z,16.01
2016-08-25T02:42:36.815Z,16.01
2016-08-25T02:43:36.843Z,16.02
2016-08-25T02:44:36.869Z,15.94
2016-08-25T02:45:36.887Z,15.96
2016-08-25T02:46:36.910Z,15.87
2016-08-25T02:47:51.872Z,15.92
2016-08-25T02:48:36.964Z,15.83
2016-08-25T02:49:36.990Z,15.89
2016-08-25T02:50:37.022Z,15.92
2016-08-25T02:51:37.037Z,15.87
2016-08-25T02:52:37.064Z,15.75
2016-08-25T02:53:37.090Z,15.82
2016-08-25T02:54:37.125Z,15.82
2016-08-25T02:55:37.152Z,15.72
2016-08-25T02:56:37.168Z,15.78
2016-08-25T02:57:52.122Z,15.69
2016-08-25T02:58:37.226Z,15.83
2016-08-25T02:59:37.243Z,15.83
2016-08-25T03:00:37.271Z,15.69
2016-08-25T03:01:37.304Z,15.76
2016-08-25T03:02:37.325Z,15.71
2016-08-25T03:03:37.346Z,15.68
2016-08-25T03:04:37.375Z,15.71
2016-08-25T03:05:37.399Z,15.72
2016-08-25T03:06:37.418Z,15.75
2016-08-25T03:07:38.154Z,15.68
2016-08-25T03:08:37.474Z,15.75
2016-08-25T03:10:52.453Z,15.69
2016-08-25T03:11:37.554Z,15.71
2016-08-25T03:12:52.503Z,15.67
2016-08-25T03:13:37.602Z,15.69
2016-08-25T03:14:37.629Z,15.59
2016-08-25T03:15:37.653Z,15.54
2016-08-25T03:16:37.680Z,15.62
2016-08-25T03:17:37.701Z,15.56
2016-08-25T03:18:37.732Z,15.56
2016-08-25T03:19:37.755Z,15.57
2016-08-25T03:20:37.785Z,15.46
2016-08-25T03:21:37.807Z,15.43
2016-08-25T03:22:37.837Z,15.49
2016-08-25T03:23:37.852Z,15.46
2016-08-25T03:24:37.877Z,15.36
2016-08-25T03:25:37.910Z,15.49
2016-08-25T03:26:37.929Z,15.39
2016-08-25T03:27:37.955Z,15.41
2016-08-25T03:28:52.907Z,15.43
2016-08-25T03:29:38.007Z,15.34
2016-08-25T03:30:38.035Z,15.29
2016-08-25T03:31:38.062Z,15.32
2016-08-25T03:32:38.083Z,15.31
2016-08-25T03:33:38.106Z,15.36
2016-08-25T03:34:38.129Z,15.36
2016-08-25T03:35:38.176Z,15.36
2016-08-25T03:36:38.237Z,15.28
2016-08-25T03:37:38.218Z,15.43
2016-08-25T03:38:38.235Z,15.29
2016-08-25T03:40:38.292Z,15.46
2016-08-25T03:41:38.317Z,15.44
2016-08-25T03:42:38.337Z,15.39
2016-08-25T03:43:38.366Z,15.36
2016-08-25T03:44:53.323Z,15.36
2016-08-25T03:45:38.417Z,15.36
2016-08-25T03:46:38.436Z,15.34
2016-08-25T03:47:38.464Z,15.28
2016-08-25T03:48:38.493Z,15.27
2016-08-25T03:49:38.515Z,15.34
2016-08-25T03:50:38.546Z,15.29
2016-08-25T03:51:38.562Z,15.27
2016-08-25T03:52:38.587Z,15.31
2016-08-25T03:53:38.617Z,15.29
2016-08-25T03:54:38.641Z,15.25
2016-08-25T03:55:38.662Z,15.25
2016-08-25T03:57:38.717Z,15.25
2016-08-25T03:58:38.738Z,15.2
2016-08-25T03:59:53.687Z,15.21
2016-08-25T04:00:53.719Z,15.17
2016-08-25T04:01:38.824Z,15.2
2016-08-25T04:02:38.844Z,15.2
2016-08-25T04:03:38.864Z,15.27
2016-08-25T04:04:38.895Z,15.19
2016-08-25T04:05:38.923Z,15.23
2016-08-25T04:06:38.941Z,15.25
2016-08-25T04:07:38.963Z,15.27
2016-08-25T04:08:38.999Z,15.27
2016-08-25T04:09:39.017Z,15.25
2016-08-25T04:10:39.045Z,15.25
2016-08-25T04:11:39.068Z,15.2
2016-08-25T04:12:39.095Z,15.25
2016-08-25T04:15:39.172Z,15.21
2016-08-25T04:16:54.116Z,15.25
2016-08-25T04:17:39.231Z,15.31
2016-08-25T04:18:39.250Z,15.19
2016-08-25T04:19:39.265Z,15.28
2016-08-25T04:20:39.291Z,15.25
2016-08-25T04:21:39.320Z,15.25
2016-08-25T04:22:39.343Z,15.29
2016-08-25T04:23:39.417Z,15.31
2016-08-25T04:24:39.395Z,15.34
2016-08-25T04:25:39.422Z,15.29
2016-08-25T04:26:40.143Z,15.28
2016-08-25T04:27:39.473Z,15.29
2016-08-25T04:28:39.498Z,15.29
2016-08-25T04:29:39.526Z,15.28
2016-08-25T04:30:39.542Z,15.32
2016-08-25T04:31:39.570Z,15.21
2016-08-25T04:32:54.517Z,15.31
2016-08-25T04:33:39.622Z,15.32
2016-08-25T04:34:39.659Z,15.28
2016-08-25T04:35:39.672Z,15.39
2016-08-25T04:36:39.699Z,15.47
2016-08-25T04:37:39.717Z,15.39
2016-08-25T04:38:39.743Z,15.46
2016-08-25T04:39:39.771Z,15.44
2016-08-25T04:40:39.799Z,15.44
2016-08-25T04:41:39.821Z,15.47
2016-08-25T04:42:39.847Z,15.47
2016-08-25T04:43:39.884Z,15.44
2016-08-25T04:44:39.905Z,15.5
2016-08-25T04:45:54.849Z,15.59
2016-08-25T04:47:54.901Z,15.83
2016-08-25T04:48:40.005Z,16.2
2016-08-25T04:49:40.028Z,16.94
2016-08-25T04:50:40.054Z,17.63
2016-08-25T04:51:40.079Z,18.3
2016-08-25T04:52:40.103Z,18.82
2016-08-25T04:53:40.129Z,19.29
2016-08-25T04:54:40.154Z,19.73
2016-08-25T04:55:40.178Z,20.21
2016-08-25T04:56:40.217Z,20.61
2016-08-25T04:57:40.236Z,20.92
2016-08-25T04:58:40.262Z,21.14
2016-08-25T04:59:40.298Z,21.4
2016-08-25T05:00:40.325Z,21.58
2016-08-25T05:01:40.352Z,21.98
2016-08-25T05:02:40.374Z,22.36
2016-08-25T05:03:40.408Z,22.58
2016-08-25T05:04:40.451Z,22.94
2016-08-25T05:05:40.468Z,23.01
2016-08-25T05:06:40.493Z,23.05
2016-08-25T05:07:40.522Z,23.23
2016-08-25T05:08:40.553Z,23.53
2016-08-25T05:09:40.580Z,23.8
2016-08-25T05:10:40.614Z,24.12
2016-08-25T05:11:40.640Z,24.03
2016-08-25T05:12:40.672Z,23.95
2016-08-25T05:13:40.708Z,23.43
2016-08-25T05:16:40.801Z,22.15
2016-08-25T05:18:40.864Z,22.2
2016-08-25T05:19:55.819Z,22.37
2016-08-25T05:20:40.929Z,22.15
2016-08-25T05:21:40.953Z,21.91
2016-08-25T05:22:40.986Z,21.52
2016-08-25T05:23:41.016Z,21.07
2016-08-25T05:24:41.102Z,20.82
2016-08-25T05:25:41.076Z,20.51
2016-08-25T05:26:41.106Z,20.18
2016-08-25T05:27:41.140Z,19.98
2016-08-25T05:28:41.168Z,19.71
2016-08-25T05:29:41.190Z,19.77
2016-08-25T05:31:41.251Z,20.61
2016-08-25T05:32:41.279Z,21.1
2016-08-25T05:33:41.319Z,20.92
2016-08-25T05:35:56.295Z,20.52
2016-08-25T05:36:41.404Z,20.5
2016-08-25T05:37:56.354Z,21.09
2016-08-25T05:38:41.462Z,21.5
2016-08-25T05:39:41.489Z,22.09
2016-08-25T05:40:41.516Z,22.52
2016-08-25T05:41:41.556Z,23
2016-08-25T05:42:41.583Z,23.55
2016-08-25T05:44:41.637Z,23.9
2016-08-25T05:46:41.714Z,24.25
2016-08-25T05:47:56.670Z,24.37
2016-08-25T05:48:56.699Z,24.45
2016-08-25T05:49:41.808Z,24.55
2016-08-25T05:50:41.842Z,24.68
2016-08-25T05:51:56.795Z,24.77
2016-08-25T05:52:56.828Z,24.95
2016-08-25T05:53:41.942Z,25.15
2016-08-25T05:54:42.029Z,25.36
2016-08-25T05:55:42.011Z,25.55
2016-08-25T05:56:42.043Z,25.55
2016-08-25T05:57:42.078Z,25.43
2016-08-25T05:58:42.106Z,25.5
2016-08-25T05:59:42.142Z,25.46
2016-08-25T06:00:42.178Z,25.18
2016-08-25T06:01:42.215Z,25.32
2016-08-25T06:02:42.245Z,25.61
2016-08-25T06:03:42.279Z,25.69
2016-08-25T06:04:42.319Z,25.85
2016-08-25T06:06:42.380Z,25.72
2016-08-25T06:07:57.343Z,26.05
2016-08-25T06:08:42.457Z,25.87
2016-08-25T06:09:42.497Z,26.1
2016-08-25T06:10:42.531Z,26.52
2016-08-25T06:11:42.557Z,26.58
2016-08-25T06:12:42.594Z,26.57
2016-08-25T06:13:42.625Z,26.97
2016-08-25T06:14:42.665Z,27.1
2016-08-25T06:15:42.703Z,27.19
2016-08-25T06:16:42.734Z,27.09
2016-08-25T06:17:42.772Z,27.29
2016-08-25T06:18:42.806Z,27.4
2016-08-25T06:21:42.908Z,27.77
2016-08-25T06:22:57.883Z,28.07
2016-08-25T06:23:42.989Z,28.33
2016-08-25T06:24:43.021Z,28.14
2016-08-25T06:25:43.058Z,28
2016-08-25T06:26:43.093Z,27.97
2016-08-25T06:27:43.131Z,28.06
2016-08-25T06:28:43.178Z,28.02
2016-08-25T06:29:43.210Z,28.06
2016-08-25T06:30:43.308Z,27.72
2016-08-25T06:31:43.290Z,27.93
2016-08-25T06:32:43.304Z,28.19
2016-08-25T06:33:43.367Z,28.17
2016-08-25T06:34:43.413Z,28.74
2016-08-25T06:35:43.452Z,28.71
2016-08-25T06:36:43.480Z,28.98
2016-08-25T06:37:43.484Z,28.96
2016-08-25T06:39:43.578Z,28.43
2016-08-25T06:40:43.619Z,28.52
2016-08-25T06:42:58.610Z,28.62
2016-08-25T06:43:43.724Z,28.56
2016-08-25T06:44:43.755Z,28.89
2016-08-25T06:45:43.784Z,29.02
2016-08-25T06:46:43.843Z,28.9
2016-08-25T06:47:43.886Z,28.76
2016-08-25T06:48:43.959Z,28.3
2016-08-25T06:49:43.936Z,27.93
2016-08-25T06:50:43.963Z,27.88
2016-08-25T06:51:44.076Z,28
2016-08-25T06:52:44.043Z,28.39
2016-08-25T06:53:44.102Z,28.64
2016-08-25T06:54:59.043Z,28.9
2016-08-25T06:55:44.155Z,29.27
2016-08-25T06:56:44.195Z,29.58
2016-08-25T06:57:44.229Z,29.74
2016-08-25T06:58:59.202Z,29.89
2016-08-25T06:59:44.295Z,30.02
2016-08-25T07:00:44.349Z,29.8
2016-08-25T07:01:44.367Z,29.94
2016-08-25T07:02:44.410Z,30.17
2016-08-25T07:03:44.447Z,30.22
2016-08-25T07:04:44.482Z,30.17
2016-08-25T07:05:44.518Z,30.23
2016-08-25T07:06:59.484Z,30.05
2016-08-25T07:07:44.586Z,30.16
2016-08-25T07:09:44.694Z,30.16
2016-08-25T07:10:59.632Z,30.35
2016-08-25T07:11:44.763Z,30.53
2016-08-25T07:12:44.785Z,30.69
2016-08-25T07:14:44.906Z,30.27
2016-08-25T07:15:44.898Z,30.55
2016-08-25T07:16:44.929Z,30.75
2016-08-25T07:17:44.965Z,30.77
2016-08-25T07:18:45.011Z,30.53
2016-08-25T07:19:45.038Z,30.1
2016-08-25T07:21:45.126Z,30.17
2016-08-25T07:22:45.171Z,30.23
2016-08-25T07:24:00.115Z,30.77
2016-08-25T07:24:45.228Z,31.01
2016-08-25T07:25:45.273Z,31.13
2016-08-25T07:27:00.241Z,30.8
2016-08-25T07:27:45.352Z,30.23
2016-08-25T07:28:45.372Z,29.71
2016-08-25T07:30:45.445Z,29.63
2016-08-25T07:31:45.497Z,29.98
2016-08-25T07:32:45.546Z,30.01
2016-08-25T07:33:45.565Z,29.55
2016-08-25T07:34:45.613Z,29.53
2016-08-25T07:35:45.634Z,29.58
2016-08-25T07:36:45.669Z,29.55
2016-08-25T07:38:45.747Z,29.26
2016-08-25T07:39:45.788Z,29.26
2016-08-25T07:40:45.834Z,29.43
2016-08-25T07:41:45.865Z,29.53
2016-08-25T07:43:00.838Z,29.86
2016-08-25T07:43:45.936Z,30
2016-08-25T07:44:45.967Z,29.86
2016-08-25T07:45:46.010Z,29.64
2016-08-25T07:47:00.980Z,29.97
2016-08-25T07:47:46.084Z,30.16
2016-08-25T07:48:46.126Z,30.43
2016-08-25T07:49:46.165Z,30.24
2016-08-25T07:50:46.187Z,30.27
2016-08-25T07:51:46.239Z,30.17
2016-08-25T07:52:46.316Z,30.38
2016-08-25T07:53:46.337Z,30.16
2016-08-25T07:54:46.344Z,29.58
2016-08-25T07:55:46.403Z,29.58
2016-08-25T07:56:46.429Z,29.6
2016-08-25T07:58:01.392Z,29.82
2016-08-25T07:58:46.491Z,29.53
2016-08-25T07:59:46.526Z,29.57
2016-08-25T08:00:46.556Z,29.53
2016-08-25T08:01:46.649Z,29.33
2016-08-25T08:02:46.661Z,29.64
2016-08-25T08:03:46.666Z,29.82
2016-08-25T08:04:46.721Z,29.45
2016-08-25T08:05:46.744Z,29.57
2016-08-25T08:07:46.820Z,29.79
2016-08-25T08:08:46.865Z,29.95
2016-08-25T08:09:46.901Z,30.07
2016-08-25T08:10:46.939Z,30.39
2016-08-25T08:11:46.955Z,30.76
2016-08-25T08:13:01.922Z,30.91
2016-08-25T08:14:01.958Z,31.19
2016-08-25T08:14:47.128Z,31.47
2016-08-25T08:15:47.107Z,31.57
2016-08-25T08:16:47.145Z,31.61
2016-08-25T08:17:47.174Z,31.62
2016-08-25T08:18:47.222Z,31.78
2016-08-25T08:19:47.265Z,31.57
2016-08-25T08:20:47.296Z,31.72
2016-08-25T08:21:47.334Z,31.61
2016-08-25T08:22:47.360Z,31.86
2016-08-25T08:23:47.402Z,31.7
2016-08-25T08:24:47.425Z,31.34
2016-08-25T08:25:47.478Z,31.43
2016-08-25T08:26:47.529Z,31.26
2016-08-25T08:27:47.544Z,31.34
2016-08-25T08:28:47.583Z,31.23
2016-08-25T08:30:02.541Z,31.2
2016-08-25T08:31:02.578Z,31.38
2016-08-25T08:33:02.665Z,31.21
2016-08-25T08:33:47.752Z,31.44
2016-08-25T08:35:47.827Z,31.48
2016-08-25T08:36:47.880Z,31.48
2016-08-25T08:37:47.898Z,31.5
2016-08-25T08:38:48.006Z,31.35
2016-08-25T08:39:47.976Z,31.34
2016-08-25T08:40:48.013Z,31.5
2016-08-25T08:41:48.054Z,31.35
2016-08-25T08:42:48.077Z,31.34
2016-08-25T08:43:48.111Z,31.63
2016-08-25T08:45:03.079Z,31.58
2016-08-25T08:46:03.121Z,31.48
2016-08-25T08:47:03.151Z,31.46
2016-08-25T08:47:48.264Z,31.73
2016-08-25T08:48:48.311Z,31.61
2016-08-25T08:49:48.344Z,31.46
2016-08-25T08:50:48.366Z,31.58
2016-08-25T08:51:48.402Z,31.81
2016-08-25T08:53:48.481Z,32.11
2016-08-25T08:54:48.509Z,32.41
2016-08-25T08:55:48.545Z,32.5
2016-08-25T08:56:48.594Z,32.74
2016-08-25T08:57:48.616Z,32.65
2016-08-25T08:58:48.655Z,32
2016-08-25T08:59:48.705Z,31.93
2016-08-25T09:01:03.657Z,31.96
2016-08-25T09:02:03.689Z,31.69
2016-08-25T09:03:03.721Z,31.26
2016-08-25T09:03:48.848Z,31.25
2016-08-25T09:04:48.870Z,31.51
2016-08-25T09:05:48.934Z,31.62
2016-08-25T09:06:48.947Z,31.89
2016-08-25T09:07:48.979Z,32.19
2016-08-25T09:08:49.011Z,32.28
2016-08-25T09:09:49.048Z,32.19
2016-08-25T09:10:49.077Z,32.19
2016-08-25T09:11:49.126Z,32.18
2016-08-25T09:12:49.155Z,32.13
2016-08-25T09:13:49.215Z,32.22
2016-08-25T09:14:49.223Z,32.08
2016-08-25T09:15:49.263Z,32.1
2016-08-25T09:16:49.291Z,32.19
2016-08-25T09:18:04.252Z,32.29
2016-08-25T09:18:49.415Z,32.32
2016-08-25T09:19:49.399Z,32.65
2016-08-25T09:21:04.372Z,33
2016-08-25T09:23:04.442Z,32.85
2016-08-25T09:23:49.554Z,32.45
2016-08-25T09:24:49.585Z,32.25
2016-08-25T09:25:49.618Z,32.04
2016-08-25T09:26:49.672Z,32.13
2016-08-25T09:27:49.690Z,32.04
2016-08-25T09:28:49.742Z,31.73
2016-08-25T09:29:49.756Z,31.56
2016-08-25T09:30:49.787Z,31.53
2016-08-25T09:31:49.827Z,31.8
2016-08-25T09:33:04.802Z,32.5
2016-08-25T09:34:04.818Z,32.66
2016-08-25T09:34:49.956Z,32.75
2016-08-25T09:35:49.961Z,32.74
2016-08-25T09:36:50.005Z,32.87
2016-08-25T09:37:50.036Z,32.96
2016-08-25T09:38:50.077Z,33.06
2016-08-25T09:39:50.121Z,33.16
2016-08-25T09:40:50.138Z,33.35
2016-08-25T09:41:50.171Z,33.29
2016-08-25T09:42:50.211Z,33.6
2016-08-25T09:43:50.251Z,33.56
2016-08-25T09:44:50.282Z,33.45
2016-08-25T09:45:51.047Z,32.96
2016-08-25T09:46:50.365Z,32.77
2016-08-25T09:47:50.385Z,32.78
2016-08-25T09:48:50.423Z,32.63
2016-08-25T09:49:50.455Z,32.55
2016-08-25T09:51:05.419Z,32.75
2016-08-25T09:51:50.529Z,32.81
2016-08-25T09:52:50.774Z,32.6
2016-08-25T09:53:50.591Z,32.3
2016-08-25T09:54:50.642Z,32.47
2016-08-25T09:55:50.672Z,32.3
2016-08-25T09:56:50.722Z,32.35
2016-08-25T09:57:50.737Z,32.35
2016-08-25T09:58:50.770Z,32.29
2016-08-25T09:59:50.808Z,32.14
2016-08-25T10:00:50.848Z,32.35
2016-08-25T10:01:51.567Z,32.32
2016-08-25T10:02:50.915Z,32.19
2016-08-25T10:03:50.943Z,32.33
2016-08-25T10:05:05.909Z,32.59
2016-08-25T10:05:51.014Z,32.72
2016-08-25T10:06:51.048Z,32.89
2016-08-25T10:07:51.772Z,32.81
2016-08-25T10:08:51.113Z,32.78
2016-08-25T10:09:51.161Z,32.72
2016-08-25T10:10:51.185Z,32.78
2016-08-25T10:11:51.225Z,33.06
2016-08-25T10:12:51.257Z,32.99
2016-08-25T10:14:51.326Z,32.92
2016-08-25T10:15:51.429Z,32.77
2016-08-25T10:16:51.402Z,32.84
2016-08-25T10:17:51.451Z,32.94
2016-08-25T10:18:52.515Z,32.88
2016-08-25T10:19:51.498Z,32.92
2016-08-25T10:21:06.460Z,32.43
2016-08-25T10:22:06.488Z,31.91
2016-08-25T10:22:51.601Z,31.73
2016-08-25T10:23:51.647Z,31.38
2016-08-25T10:24:51.677Z,31.1
2016-08-25T10:26:06.639Z,31.02
2016-08-25T10:26:51.754Z,31.04
2016-08-25T10:27:51.773Z,31.06
2016-08-25T10:28:51.820Z,30.89
2016-08-25T10:29:51.843Z,31.01
2016-08-25T10:30:51.883Z,30.88
2016-08-25T10:31:51.915Z,30.72
2016-08-25T10:32:51.966Z,30.67
2016-08-25T10:33:51.986Z,30.45
2016-08-25T10:34:52.721Z,30.46
2016-08-25T10:35:52.052Z,30.34
2016-08-25T10:37:07.725Z,30.31
2016-08-25T10:37:52.116Z,30.04
2016-08-25T10:38:52.169Z,30.17
2016-08-25T10:39:52.186Z,30.13
2016-08-25T10:40:52.229Z,30.24
2016-08-25T10:41:52.257Z,30.31
2016-08-25T10:42:52.302Z,30.11
2016-08-25T10:43:52.314Z,30.32
2016-08-25T10:44:52.379Z,30.27
2016-08-25T10:45:52.392Z,30.02
2016-08-25T10:46:52.433Z,30.05
2016-08-25T10:47:52.465Z,30.2
2016-08-25T10:48:52.503Z,30.23
2016-08-25T10:50:07.451Z,30.27
2016-08-25T10:50:52.581Z,30.23
2016-08-25T10:51:52.596Z,30.05
2016-08-25T10:53:07.596Z,29.98
2016-08-25T10:54:07.578Z,29.8
2016-08-25T10:54:52.693Z,29.94
2016-08-25T10:55:52.728Z,30.08
2016-08-25T10:56:52.762Z,30.16
2016-08-25T10:58:07.730Z,30.15
2016-08-25T10:58:52.818Z,30.23
2016-08-25T11:00:52.889Z,30.11
2016-08-25T11:01:52.932Z,30.02
2016-08-25T11:02:52.962Z,29.86
2016-08-25T11:03:53.020Z,30.01
2016-08-25T11:04:53.019Z,29.87
2016-08-25T11:05:53.075Z,29.74
2016-08-25T11:06:53.097Z,29.55
2016-08-25T11:08:08.054Z,29.52
2016-08-25T11:08:53.176Z,29.64
2016-08-25T11:09:53.191Z,29.65
2016-08-25T11:10:53.229Z,29.79
2016-08-25T11:11:53.255Z,29.83
2016-08-25T11:12:53.302Z,29.85
2016-08-25T11:13:53.332Z,29.9
2016-08-25T11:14:53.361Z,29.87
2016-08-25T11:15:53.385Z,29.83
2016-08-25T11:16:53.427Z,29.92
2016-08-25T11:17:53.450Z,29.95
2016-08-25T11:18:53.494Z,29.97
2016-08-25T11:19:53.512Z,29.98
2016-08-25T11:20:53.561Z,29.9
2016-08-25T11:21:53.580Z,29.89
2016-08-25T11:22:53.640Z,30
2016-08-25T11:23:53.655Z,30.11
2016-08-25T11:24:53.687Z,30.1
2016-08-25T11:25:53.708Z,30.11
2016-08-25T11:26:53.763Z,30.15
2016-08-25T11:27:53.775Z,30.16
2016-08-25T11:28:53.822Z,30.04
2016-08-25T11:29:53.845Z,30.08
2016-08-25T11:30:53.877Z,30.15
2016-08-25T11:31:53.913Z,30.22
2016-08-25T11:32:53.940Z,30.11
2016-08-25T11:33:53.985Z,30.01
2016-08-25T11:34:54.010Z,30.1
2016-08-25T11:35:54.096Z,30.07
2016-08-25T11:36:54.067Z,29.98
2016-08-25T11:37:54.102Z,30
2016-08-25T11:38:54.149Z,29.9
2016-08-25T11:40:09.093Z,29.71
2016-08-25T11:40:54.218Z,29.7
2016-08-25T11:41:54.238Z,29.73
2016-08-25T11:43:09.206Z,29.71
2016-08-25T11:43:54.296Z,29.63
2016-08-25T11:45:54.365Z,29.64
2016-08-25T11:46:54.406Z,29.57
2016-08-25T11:47:54.426Z,29.57
2016-08-25T11:48:54.462Z,29.57
2016-08-25T11:49:54.488Z,29.58
2016-08-25T11:50:54.528Z,29.58
2016-08-25T11:51:54.552Z,29.55
2016-08-25T11:52:55.276Z,29.78
2016-08-25T11:53:54.644Z,29.73
2016-08-25T11:54:54.707Z,29.7
2016-08-25T11:56:10.304Z,29.74
2016-08-25T11:56:54.717Z,29.8
2016-08-25T11:57:54.752Z,29.79
2016-08-25T11:58:54.782Z,29.82
2016-08-25T12:00:09.746Z,29.71
2016-08-25T12:00:54.838Z,29.65
2016-08-25T12:01:54.870Z,29.6
2016-08-25T12:03:54.942Z,29.45
2016-08-25T12:04:54.969Z,29.46
2016-08-25T12:05:55.005Z,29.51
2016-08-25T12:06:55.046Z,29.57
2016-08-25T12:07:55.095Z,29.48
2016-08-25T12:09:55.140Z,29.48
2016-08-25T12:10:55.159Z,29.64
2016-08-25T12:12:10.129Z,29.65
2016-08-25T12:13:10.156Z,29.71
2016-08-25T12:13:55.271Z,29.76
2016-08-25T12:14:55.288Z,29.74
2016-08-25T12:16:55.356Z,29.86
2016-08-25T12:17:55.393Z,30.07
2016-08-25T12:18:55.428Z,30.02
2016-08-25T12:19:55.443Z,30.1
2016-08-25T12:20:55.488Z,30.15
2016-08-25T12:21:55.508Z,30.1
2016-08-25T12:22:55.538Z,30.01
2016-08-25T12:23:55.581Z,29.85
2016-08-25T12:24:55.606Z,29.78
2016-08-25T12:25:55.653Z,29.85
2016-08-25T12:26:55.669Z,29.79
2016-08-25T12:28:10.640Z,29.89
2016-08-25T12:29:10.665Z,29.83
2016-08-25T12:29:55.768Z,29.85
2016-08-25T12:30:55.811Z,29.71
2016-08-25T12:31:55.838Z,29.7
2016-08-25T12:32:55.873Z,29.86
2016-08-25T12:33:55.955Z,30.04
2016-08-25T12:34:55.944Z,30.1
2016-08-25T12:35:55.958Z,30.07
2016-08-25T12:36:55.994Z,30.01
2016-08-25T12:38:56.067Z,30.07
2016-08-25T12:40:11.016Z,30.15
2016-08-25T12:40:56.118Z,30.15
2016-08-25T12:42:11.078Z,30.15
2016-08-25T12:43:11.109Z,30.11
2016-08-25T12:43:56.226Z,30.15
2016-08-25T12:44:56.263Z,30.16
2016-08-25T12:45:56.288Z,30.15
2016-08-25T12:47:56.367Z,30.23
2016-08-25T12:48:56.382Z,30.15
2016-08-25T12:49:56.435Z,30.11
2016-08-25T12:50:56.491Z,30.1
2016-08-25T12:52:56.529Z,30.26
2016-08-25T12:53:56.544Z,30.32
2016-08-25T12:54:56.577Z,30.34
2016-08-25T12:55:56.612Z,30.16
2016-08-25T12:56:56.654Z,30.11
2016-08-25T12:57:56.672Z,30.11
2016-08-25T13:00:11.651Z,30.13
2016-08-25T13:00:56.755Z,30.02
2016-08-25T13:01:56.802Z,29.98
2016-08-25T13:02:56.822Z,30
2016-08-25T13:03:56.864Z,29.95
2016-08-25T13:04:56.885Z,29.89
2016-08-25T13:05:56.946Z,30.01
2016-08-25T13:06:56.947Z,29.98
2016-08-25T13:07:56.979Z,29.9
2016-08-25T13:08:57.030Z,30.05
2016-08-25T13:09:57.047Z,30.08
2016-08-25T13:10:57.084Z,30.16
2016-08-25T13:11:57.144Z,30.11
2016-08-25T13:12:57.140Z,30.1
2016-08-25T13:13:57.189Z,30.23
2016-08-25T13:15:12.134Z,30.05
2016-08-25T13:15:57.245Z,30.08
2016-08-25T13:16:57.278Z,30.05
2016-08-25T13:17:57.550Z,30.07
2016-08-25T13:19:57.366Z,30.13
2016-08-25T13:20:57.404Z,30.07
2016-08-25T13:21:57.429Z,30.11
2016-08-25T13:22:57.462Z,30.11
2016-08-25T13:23:57.518Z,30.11
2016-08-25T13:24:57.521Z,30.17
2016-08-25T13:25:57.569Z,30.08
2016-08-25T13:27:12.516Z,30.07
2016-08-25T13:27:57.639Z,30.13
2016-08-25T13:28:57.658Z,30.04
2016-08-25T13:29:57.687Z,30.08
2016-08-25T13:31:12.653Z,30.05
2016-08-25T13:31:57.759Z,30.15
2016-08-25T13:32:57.791Z,30.23
2016-08-25T13:34:57.857Z,30.24
2016-08-25T13:35:57.890Z,30.16
2016-08-25T13:36:57.909Z,30.15
2016-08-25T13:37:58.641Z,30.01
2016-08-25T13:38:57.969Z,30.11
2016-08-25T13:39:58.015Z,30.01
2016-08-25T13:40:58.050Z,30.19
2016-08-25T13:41:58.060Z,30.16
2016-08-25T13:42:58.110Z,30.13
2016-08-25T13:43:58.185Z,30.17
2016-08-25T13:44:58.171Z,30.17
2016-08-25T13:45:58.197Z,30.11
2016-08-25T13:47:13.161Z,30.11